Aeroporto :
LOGIN :

Iscrizione | Disclaimer

   EN    FR    IT 

 










Sommario :    VFR   VFR Marginale   IFR   IFR Intensivo   IFR Molto Intensivo
Visibilità : 
Base nubi : 
>= 8 km
>= 3000ft
5 / 8 km
1000 / 3000 ft
1500m / 5 km
500 / 1000 ft
800 / 1500m
200 / 500 ft
< 800m
< 200 ft
Simboli :   Temporali  Nebbia  Neve Forte  Precipitazioni Forti  Vento > 20 kt
SIGMETs :   Varie  Temporali  Ghiacco  Turbolenza  Onda orograficha  Ceneri Vulcaniche






- Altitudine del aeroporto : 265 ft
- Codice IATA : BJY


LYBT - Batajnica Air Base

ULTIMO METAR :
  • 020600Z 28005KT 250V320 CAVOK 15/13 Q1012 NOSIG

METARs OBSOLETI :
  • 020530Z 27005KT 240V320 CAVOK 14/13 Q1012 NOSIG
  • 020500Z VRB01KT CAVOK 13/13 Q1012 NOSIG
  • 020430Z 33003KT 280V030 CAVOK 13/13 Q1012 NOSIG
  • 020400Z 25002KT CAVOK 12/12 Q1012 NOSIG
  • 020330Z 25001KT CAVOK 11/11 Q1012 NOSIG

TAF TAF LYBT
Valido dal 02 a 06 ore il 03 a 06 ore UTC


020500Z 0206/0306 26006KT 9999 SCT033 TX18/0213Z TN10/0303Z
BECMG 0208/0210 32012KT
TEMPO 0211/0217 5000 SHRA SCT027TCU SCT030
PROB30
TEMPO 0213/0217 33015G25KT 5000 TSRA SCT025CB BKN030
BECMG 0217/0219 24006KT
TEMPO 0302/0305 3000 BR



MetMap, La meteo Aeronautica in un colpo d'occhio ! - Copyright ORBIFLY Dicembre 2007 - Disclaimer

ORBIFLY MET'MAP TEAM :

Programmazione e sviluppo : Alexandra Zaïnal
Concezione : Baudouin d'Aumeries
Aiuto per la programmazione : Marc-Olivier Méhu
Supporto tecnico e logistico : Manuel Goepfert
Aiuto per la traduzione : Arnaldo La Scala

Contatto : metmap@orbifly.com




FONTI E CREDITI :

   NOAA